Time;durP1;ratioP1;P1;durP2;ratioP2;P2;SDS_P1;SDS_P2;PMS_P1;PMS_P2;Temp;Humidity;BMP_temperature;BMP_pressure;BME280_temperature;BME280_humidity;BME280_pressure;Samples;Min_cycle;Max_cycle;Signal;HPM_P1;HPM_P2
2023/08/06 00:00:33;;;;;;;1.38;0.80;;;;;;;26.00;100.00;98737.84;5112541;28;20194;-72
2023/08/06 00:03:00;;;;;;;0.57;0.57;;;;;;;26.03;100.00;98784.59;5112954;28;20209;-73
2023/08/06 00:05:27;;;;;;;1.58;0.90;;;;;;;25.69;99.91;98782.50;5094319;28;20206;-73
2023/08/06 00:07:54;;;;;;;0.80;0.80;;;;;;;25.79;100.00;98778.28;5092955;28;20665;-72
2023/08/06 00:10:20;;;;;;;1.77;0.95;;;;;;;25.74;99.55;98746.72;5040348;28;20614;-72
2023/08/06 00:12:48;;;;;;;1.17;0.80;;;;;;;25.78;97.55;98748.22;5040562;28;20190;-72
2023/08/06 00:15:15;;;;;;;1.83;0.90;;;;;;;25.99;97.10;98777.78;5092851;28;20194;-72
2023/08/06 00:17:43;;;;;;;1.40;0.90;;;;;;;25.88;98.90;98781.16;5092603;28;20201;-72
2023/08/06 00:20:10;;;;;;;0.98;0.90;;;;;;;25.64;100.00;98777.50;5091783;28;20210;-72
2023/08/06 00:22:39;;;;;;;1.75;1.02;;;;;;;25.73;100.00;98768.91;5052255;28;20202;-72
2023/08/06 00:25:06;;;;;;;1.02;0.90;;;;;;;25.68;100.00;98767.53;5110604;28;20589;-73
2023/08/06 00:27:33;;;;;;;1.98;0.85;;;;;;;25.39;100.00;98770.31;5112614;28;20190;-73
2023/08/06 00:30:00;;;;;;;1.98;0.93;;;;;;;25.11;100.00;98739.41;5112245;28;20228;-72
2023/08/06 00:32:27;;;;;;;1.60;0.82;;;;;;;24.86;100.00;98749.09;5109679;28;20210;-73
2023/08/06 00:34:55;;;;;;;1.40;1.25;;;;;;;24.78;100.00;98752.19;5091855;28;20217;-72
2023/08/06 00:37:22;;;;;;;0.85;0.80;;;;;;;24.66;100.00;98767.06;5091905;28;20219;-73
2023/08/06 00:39:48;;;;;;;0.95;0.88;;;;;;;24.38;100.00;98750.34;5091587;28;20208;-72
2023/08/06 00:42:16;;;;;;;1.05;0.85;;;;;;;24.21;100.00;98763.78;5039563;28;20247;-73
2023/08/06 00:44:42;;;;;;;1.38;0.82;;;;;;;23.83;100.00;98743.09;5091721;28;20230;-72
2023/08/06 00:47:09;;;;;;;1.75;1.00;;;;;;;23.68;100.00;98749.34;5091522;28;20684;-72
2023/08/06 00:49:37;;;;;;;1.67;0.85;;;;;;;23.50;100.00;98764.50;5091525;28;20218;-72
2023/08/06 00:52:09;;;;;;;1.65;0.93;;;;;;;23.29;100.00;98760.44;5039122;28;20664;-71
2023/08/06 00:54:36;;;;;;;1.23;0.93;;;;;;;23.02;100.00;98759.34;5091821;28;20260;-71
2023/08/06 00:57:04;;;;;;;1.40;0.80;;;;;;;22.71;100.00;98713.50;5093245;28;20209;-71
2023/08/06 00:59:32;;;;;;;0.75;0.75;;;;;;;22.86;100.00;98759.38;5092222;28;20194;-71
2023/08/06 01:01:59;;;;;;;0.77;0.77;;;;;;;22.89;100.00;98764.47;5040063;28;20198;-71
2023/08/06 01:04:26;;;;;;;0.75;0.70;;;;;;;22.93;100.00;98773.09;5092160;28;20686;-72
2023/08/06 01:07:03;;;;;;;0.75;0.75;;;;;;;23.07;100.00;98768.72;5091761;28;20293;-71
2023/08/06 01:09:46;;;;;;;1.75;0.93;;;;;;;23.00;100.00;98767.38;5091749;28;20261;-72
2023/08/06 01:12:24;;;;;;;1.45;0.85;;;;;;;22.82;100.00;98764.91;5096437;28;20237;-71
2023/08/06 01:14:59;;;;;;;0.70;0.70;;;;;;;22.69;100.00;98759.44;5095902;28;20204;-71
2023/08/06 01:17:27;;;;;;;1.25;0.90;;;;;;;22.58;100.00;98759.16;5095980;28;20680;-71
2023/08/06 01:19:54;;;;;;;0.70;0.70;;;;;;;22.41;100.00;98736.28;5095476;28;20237;-71
2023/08/06 01:22:22;;;;;;;0.82;0.70;;;;;;;22.50;100.00;98762.22;5095508;28;20615;-72
2023/08/06 01:24:51;;;;;;;0.70;0.70;;;;;;;22.58;100.00;98775.00;5095461;28;20210;-72
2023/08/06 01:27:24;;;;;;;1.45;0.90;;;;;;;22.59;100.00;98755.56;5101448;28;20197;-71
2023/08/06 01:30:03;;;;;;;0.70;0.70;;;;;;;22.52;100.00;98764.75;5115487;28;20248;-71
2023/08/06 01:32:33;;;;;;;0.90;0.90;;;;;;;22.27;100.00;98753.81;5114048;28;20621;-71
2023/08/06 01:35:02;;;;;;;1.80;1.00;;;;;;;22.29;100.00;98762.53;5115547;28;20201;-71
2023/08/06 01:37:30;;;;;;;1.25;0.95;;;;;;;22.45;100.00;98781.88;5114995;28;20189;-72
2023/08/06 01:39:58;;;;;;;0.88;0.88;;;;;;;22.40;100.00;98781.28;5115776;28;20208;-71
2023/08/06 01:42:25;;;;;;;1.02;0.90;;;;;;;22.47;100.00;98782.66;5114935;28;20583;-71
2023/08/06 01:44:51;;;;;;;0.80;0.80;;;;;;;22.51;100.00;98757.78;5115467;28;20194;-71
2023/08/06 01:47:18;;;;;;;1.27;0.80;;;;;;;22.48;100.00;98779.06;5061749;28;20205;-71
2023/08/06 01:49:45;;;;;;;0.88;0.75;;;;;;;22.50;100.00;98786.00;5114753;28;20225;-71
2023/08/06 01:52:12;;;;;;;1.23;0.80;;;;;;;22.40;100.00;98782.13;5107419;28;20190;-71
2023/08/06 01:54:40;;;;;;;0.60;0.60;;;;;;;22.43;100.00;98784.63;5094741;28;20233;-70
2023/08/06 01:57:07;;;;;;;1.00;0.90;;;;;;;22.41;100.00;98767.97;5094604;28;20699;-71
2023/08/06 01:59:34;;;;;;;0.80;0.80;;;;;;;22.24;100.00;98765.41;5043045;28;20283;-71
2023/08/06 02:02:01;;;;;;;1.02;0.88;;;;;;;22.26;100.00;98773.25;5100104;28;20193;-71
2023/08/06 02:04:27;;;;;;;0.70;0.70;;;;;;;22.15;100.00;98764.09;5115261;28;20193;-71
2023/08/06 02:06:54;;;;;;;2.47;1.02;;;;;;;22.07;100.00;98734.63;5114902;28;20201;-72
2023/08/06 02:09:21;;;;;;;0.70;0.70;;;;;;;22.17;100.00;98770.16;5114937;28;20197;-71
2023/08/06 02:11:49;;;;;;;1.65;0.90;;;;;;;22.32;100.00;98762.34;5106786;28;20209;-71
2023/08/06 02:14:16;;;;;;;0.50;0.50;;;;;;;22.40;100.00;98755.69;5094755;28;20213;-72
2023/08/06 02:16:42;;;;;;;1.65;0.85;;;;;;;22.54;100.00;98762.91;5094107;28;20207;-71
2023/08/06 02:19:09;;;;;;;0.80;0.80;;;;;;;22.39;100.00;98769.00;5094218;28;20198;-71
2023/08/06 02:21:36;;;;;;;2.35;0.88;;;;;;;22.34;100.00;98768.38;5093597;28;20535;-71
2023/08/06 02:24:03;;;;;;;0.60;0.60;;;;;;;22.58;100.00;98759.16;5094194;28;20202;-71
2023/08/06 02:26:30;;;;;;;2.25;0.77;;;;;;;22.55;100.00;98764.59;5042436;28;20198;-71
2023/08/06 02:28:58;;;;;;;0.80;0.80;;;;;;;22.45;100.00;98723.75;5111699;28;20201;-71
2023/08/06 02:31:25;;;;;;;0.90;0.85;;;;;;;22.51;100.00;98771.81;5114554;28;20213;-71
2023/08/06 02:33:51;;;;;;;0.70;0.70;;;;;;;22.56;100.00;98767.16;5114691;28;20201;-71
2023/08/06 02:36:18;;;;;;;5.97;1.42;;;;;;;22.55;100.00;98761.94;5061574;28;20189;-71
2023/08/06 02:38:45;;;;;;;4.25;1.23;;;;;;;22.20;100.00;98674.06;5113871;28;20263;-71
2023/08/06 02:41:12;;;;;;;7.07;1.63;;;;;;;22.56;100.00;98763.66;5061322;28;20208;-71
2023/08/06 02:43:38;;;;;;;6.30;1.60;;;;;;;22.55;100.00;98769.88;5114038;28;20205;-72
2023/08/06 02:46:06;;;;;;;10.38;1.98;;;;;;;22.59;100.00;98756.41;5061287;28;20201;-71
2023/08/06 02:48:33;;;;;;;6.07;1.60;;;;;;;22.64;100.00;98772.03;5109368;28;20198;-71
2023/08/06 02:51:01;;;;;;;6.85;1.63;;;;;;;22.72;100.00;98746.06;5093254;28;20257;-71
2023/08/06 02:53:27;;;;;;;6.57;1.45;;;;;;;22.80;100.00;98775.53;5093691;28;20240;-71
2023/08/06 02:55:55;;;;;;;8.95;1.88;;;;;;;22.63;100.00;98783.53;5093530;28;20201;-71
2023/08/06 02:58:22;;;;;;;7.38;1.65;;;;;;;22.56;100.00;98798.00;5093139;28;20202;-71
2023/08/06 03:01:00;;;;;;;10.70;1.95;;;;;;;22.28;100.00;98782.78;5093186;28;20673;-71
2023/08/06 03:03:29;;;;;;;9.25;1.80;;;;;;;22.42;100.00;98800.53;5093247;28;20668;-71
2023/08/06 03:05:56;;;;;;;11.25;2.13;;;;;;;22.20;100.00;98764.72;5093356;28;20205;-72
2023/08/06 03:08:23;;;;;;;5.70;1.52;;;;;;;22.37;100.00;98789.34;5093185;28;20226;-71
2023/08/06 03:10:50;;;;;;;7.50;1.73;;;;;;;22.32;100.00;98775.56;5092869;28;20233;-73
2023/08/06 03:13:17;;;;;;;4.18;1.27;;;;;;;22.40;100.00;98792.69;5093071;28;20202;-72
2023/08/06 03:15:44;;;;;;;8.98;1.77;;;;;;;22.43;100.00;98783.75;5040919;28;20684;-71
2023/08/06 03:18:10;;;;;;;6.88;1.40;;;;;;;22.48;100.00;98774.63;5092595;28;20202;-72
2023/08/06 03:20:38;;;;;;;4.82;1.33;;;;;;;22.46;100.00;98759.81;5092728;28;20218;-71
2023/08/06 03:23:05;;;;;;;5.65;1.50;;;;;;;22.51;100.00;98768.34;5040674;28;20194;-73
2023/08/06 03:25:32;;;;;;;5.80;1.42;;;;;;;22.49;100.00;98762.28;5092715;28;20206;-72
2023/08/06 03:27:59;;;;;;;2.97;1.10;;;;;;;22.33;100.00;98743.75;5040876;28;20589;-74
2023/08/06 03:30:25;;;;;;;3.28;1.20;;;;;;;22.49;100.00;98743.78;5092847;28;20605;-74
2023/08/06 03:32:52;;;;;;;5.63;1.45;;;;;;;22.39;100.00;98747.88;5112626;28;20194;-73
2023/08/06 03:35:19;;;;;;;2.25;1.00;;;;;;;22.30;100.00;98748.34;5112335;28;20275;-73
2023/08/06 03:37:48;;;;;;;6.13;1.55;;;;;;;22.39;100.00;98758.44;5113065;28;20206;-72
2023/08/06 03:40:15;;;;;;;5.38;1.40;;;;;;;22.31;100.00;98726.31;5112554;28;20744;-74
2023/08/06 03:42:41;;;;;;;6.40;1.58;;;;;;;22.35;100.00;98770.09;5041226;28;20209;-72
2023/08/06 03:45:09;;;;;;;4.38;1.25;;;;;;;22.32;100.00;98754.44;5093171;28;20216;-72
2023/08/06 03:47:36;;;;;;;7.80;1.90;;;;;;;22.10;100.00;98770.56;5092249;28;20255;-72
2023/08/06 03:50:03;;;;;;;4.53;1.30;;;;;;;22.07;100.00;98745.19;5092174;28;20198;-73
2023/08/06 03:52:30;;;;;;;6.90;1.50;;;;;;;21.68;100.00;98676.84;5056912;28;20198;-73
2023/08/06 03:54:58;;;;;;;6.10;1.50;;;;;;;22.35;100.00;98767.47;5092387;28;20234;-73
2023/08/06 03:57:25;;;;;;;5.40;1.38;;;;;;;22.35;100.00;98772.75;5092683;28;20219;-73
2023/08/06 03:59:52;;;;;;;4.43;1.23;;;;;;;22.52;100.00;98776.19;5092203;28;20209;-77
2023/08/06 04:02:18;;;;;;;7.18;1.63;;;;;;;22.71;100.00;98776.94;5091794;28;20656;-73
2023/08/06 04:04:45;;;;;;;3.25;1.13;;;;;;;22.47;100.00;98757.09;5092097;28;20202;-71
2023/08/06 04:07:12;;;;;;;5.25;1.40;;;;;;;22.80;100.00;98769.41;5091997;28;20194;-72
2023/08/06 04:09:53;;;;;;;4.40;1.30;;;;;;;22.93;100.00;98778.38;5092208;28;20237;-73
2023/08/06 04:12:21;;;;;;;3.13;1.13;;;;;;;23.05;100.00;98790.88;5091844;28;20218;-73
2023/08/06 04:14:48;;;;;;;4.88;1.38;;;;;;;23.00;100.00;98785.88;5091949;28;20293;-78
2023/08/06 04:17:15;;;;;;;5.53;1.42;;;;;;;23.27;100.00;98796.69;5092140;28;20206;-72
2023/08/06 04:19:42;;;;;;;6.05;1.60;;;;;;;23.52;100.00;98790.84;5098216;28;20213;-72
2023/08/06 04:22:08;;;;;;;8.38;1.70;;;;;;;23.80;100.00;98798.88;5105841;28;20266;-76
2023/08/06 04:24:35;;;;;;;9.63;1.80;;;;;;;24.10;100.00;98809.44;5112034;28;20197;-73
2023/08/06 04:27:02;;;;;;;9.68;1.70;;;;;;;24.35;100.00;98804.38;5111971;28;20201;-72
2023/08/06 04:29:30;;;;;;;11.50;2.00;;;;;;;24.93;100.00;98803.44;5111983;28;20200;-73
2023/08/06 04:31:57;;;;;;;8.50;1.67;;;;;;;24.76;100.00;98729.38;5046805;28;20222;-71
2023/08/06 04:34:23;;;;;;;9.27;1.70;;;;;;;25.77;100.00;98804.94;5052838;28;20201;-72
2023/08/06 04:36:50;;;;;;;9.93;1.75;;;;;;;25.91;98.77;98801.34;5091327;28;20259;-72
2023/08/06 04:39:17;;;;;;;10.85;1.85;;;;;;;25.74;99.55;98797.19;5108241;28;20705;-73
2023/08/06 04:41:44;;;;;;;9.75;1.65;;;;;;;25.18;100.00;98785.00;5111415;28;20197;-72
2023/08/06 04:44:10;;;;;;;7.78;1.65;;;;;;;25.29;100.00;98795.75;5044069;28;20598;-72
2023/08/06 04:46:39;;;;;;;9.48;1.70;;;;;;;25.45;100.00;98790.28;5090927;28;20286;-72
2023/08/06 04:49:05;;;;;;;12.57;1.90;;;;;;;24.90;100.00;98788.53;5091326;28;20202;-73
2023/08/06 04:51:32;;;;;;;8.30;1.67;;;;;;;24.69;100.00;98774.81;5100170;28;20228;-73
2023/08/06 04:53:59;;;;;;;8.75;1.70;;;;;;;24.57;100.00;98745.59;5098846;28;20217;-72
2023/08/06 04:56:27;;;;;;;9.63;1.70;;;;;;;24.58;100.00;98785.25;5047822;28;20193;-72
2023/08/06 04:58:54;;;;;;;11.32;1.80;;;;;;;24.69;100.00;98781.91;5111279;28;20205;-72
2023/08/06 05:01:21;;;;;;;9.70;1.90;;;;;;;24.82;100.00;98766.09;5111089;28;20198;-72
2023/08/06 05:03:49;;;;;;;8.70;1.60;;;;;;;25.26;100.00;98771.19;5108785;28;20194;-73
2023/08/06 05:06:16;;;;;;;8.60;1.63;;;;;;;25.38;100.00;98781.88;5111752;28;20193;-72
2023/08/06 05:08:43;;;;;;;7.78;1.45;;;;;;;25.81;100.00;98779.88;5111561;28;20201;-72
2023/08/06 05:11:10;;;;;;;10.10;1.70;;;;;;;25.79;100.00;98776.47;5105578;28;20229;-72
2023/08/06 05:13:37;;;;;;;9.43;1.65;;;;;;;26.27;97.99;98759.00;5100169;28;20214;-77
2023/08/06 05:16:04;;;;;;;7.68;1.45;;;;;;;27.13;90.18;98746.56;5101569;28;20202;-71
2023/08/06 05:18:31;;;;;;;11.25;1.83;;;;;;;27.97;85.21;98749.91;5097769;28;20217;-72
2023/08/06 05:20:59;;;;;;;7.22;1.40;;;;;;;28.17;79.96;98691.56;5101381;28;20726;-72
2023/08/06 05:23:26;;;;;;;10.00;1.73;;;;;;;29.17;74.52;98764.34;5103346;28;20198;-72
2023/08/06 05:25:52;;;;;;;12.40;1.92;;;;;;;27.80;81.32;98769.00;5090435;28;20209;-72
2023/08/06 05:28:19;;;;;;;6.95;1.50;;;;;;;26.89;88.87;98759.00;5090734;28;20213;-72
2023/08/06 05:30:46;;;;;;;8.15;1.60;;;;;;;26.82;91.42;98768.38;5094309;28;20553;-72
2023/08/06 05:33:13;;;;;;;5.82;1.42;;;;;;;26.15;96.96;98758.00;5090929;28;20208;-72
2023/08/06 05:35:41;;;;;;;11.48;1.92;;;;;;;26.05;98.65;98756.94;5045662;28;20238;-71
2023/08/06 05:38:09;;;;;;;6.80;1.45;;;;;;;25.64;100.00;98740.34;5091020;28;20198;-71
2023/08/06 05:40:36;;;;;;;14.35;2.15;;;;;;;25.53;100.00;98750.84;5095376;28;20676;-71
2023/08/06 05:43:03;;;;;;;7.25;1.45;;;;;;;25.59;100.00;98742.44;5049795;28;20214;-71
2023/08/06 05:45:30;;;;;;;10.45;1.70;;;;;;;25.42;100.00;98753.31;5089946;28;20574;-72
2023/08/06 05:47:58;;;;;;;5.03;1.20;;;;;;;25.51;100.00;98760.69;5097168;28;21854;-72
2023/08/06 05:50:25;;;;;;;9.40;1.67;;;;;;;25.40;100.00;98734.84;5098622;28;20241;-72
2023/08/06 05:52:51;;;;;;;8.52;1.73;;;;;;;25.49;100.00;98759.94;5100435;28;20256;-72
2023/08/06 05:55:20;;;;;;;13.38;2.03;;;;;;;25.52;100.00;98755.28;5045780;28;20205;-72
2023/08/06 05:57:47;;;;;;;11.48;1.98;;;;;;;25.21;100.00;98775.97;5101076;28;20198;-72
2023/08/06 06:00:14;;;;;;;8.90;1.60;;;;;;;25.18;100.00;98780.50;5103532;28;20205;-71
2023/08/06 06:02:41;;;;;;;10.77;1.83;;;;;;;25.43;100.00;98768.31;5113703;28;20190;-72
2023/08/06 06:05:08;;;;;;;9.65;1.75;;;;;;;26.07;100.00;98778.09;5057453;28;20202;-71
2023/08/06 06:07:35;;;;;;;7.05;1.45;;;;;;;26.42;100.00;98767.69;5055416;28;20740;-73
2023/08/06 06:10:02;;;;;;;7.22;1.50;;;;;;;26.49;100.00;98771.63;5104850;28;20202;-73
2023/08/06 06:12:30;;;;;;;9.98;1.80;;;;;;;26.63;100.00;98775.00;5109377;28;20757;-72
2023/08/06 06:14:57;;;;;;;10.05;1.88;;;;;;;26.33;100.00;98773.66;5112703;28;20201;-72
2023/08/06 06:17:24;;;;;;;7.75;1.50;;;;;;;26.44;100.00;98763.09;5109299;28;20198;-72
2023/08/06 06:19:51;;;;;;;4.75;1.13;;;;;;;26.37;100.00;98768.00;5102732;28;20271;-71
2023/08/06 06:22:17;;;;;;;9.23;1.75;;;;;;;26.15;100.00;98771.28;5094251;28;20213;-72
2023/08/06 06:24:44;;;;;;;8.13;1.75;;;;;;;26.41;100.00;98779.28;5094216;28;20216;-72
2023/08/06 06:27:11;;;;;;;10.30;2.00;;;;;;;26.37;100.00;98772.47;5093982;28;20213;-72
2023/08/06 06:29:40;;;;;;;7.38;1.50;;;;;;;26.22;100.00;98757.63;5094838;28;20209;-72
2023/08/06 06:32:07;;;;;;;9.20;1.73;;;;;;;26.37;100.00;98772.47;5057307;28;20213;-71
2023/08/06 06:34:34;;;;;;;7.70;1.60;;;;;;;26.85;100.00;98777.00;5101582;28;20738;-74
2023/08/06 06:37:01;;;;;;;6.57;1.33;;;;;;;27.37;98.70;98759.84;5093847;28;20566;-75
2023/08/06 06:39:27;;;;;;;6.95;1.38;;;;;;;27.71;96.71;98775.06;5094090;28;20201;-78
2023/08/06 06:41:54;;;;;;;8.40;1.73;;;;;;;27.72;97.50;98743.94;5110686;28;20612;-78
2023/08/06 06:44:21;;;;;;;7.07;2.75;;;;;;;27.72;98.29;98775.91;5114009;28;20564;-74
2023/08/06 06:46:49;;;;;;;4.57;1.33;;;;;;;28.04;95.60;98772.44;5055655;28;20225;-75
2023/08/06 06:49:16;;;;;;;5.63;1.48;;;;;;;27.85;94.78;98756.19;5058667;28;20198;-76
2023/08/06 06:51:42;;;;;;;6.90;1.48;;;;;;;27.94;97.01;98741.28;5042700;28;20217;-78
2023/08/06 06:54:09;;;;;;;7.28;1.45;;;;;;;28.25;95.21;98763.81;5093819;28;20302;-75
2023/08/06 06:56:36;;;;;;;7.93;1.63;;;;;;;27.83;98.24;98768.78;5093831;28;20714;-75
2023/08/06 06:59:03;;;;;;;10.68;1.73;;;;;;;27.56;100.00;98754.91;5058881;28;20682;-76
2023/08/06 07:01:29;;;;;;;12.18;2.13;;;;;;;28.10;99.91;98749.84;5056935;28;20201;-75
2023/08/06 07:03:58;;;;;;;13.73;2.22;;;;;;;28.22;97.76;98748.88;5058058;28;20190;-76
2023/08/06 07:06:24;;;;;;;5.82;1.48;;;;;;;28.45;96.46;98755.94;5093776;28;20287;-75
2023/08/06 07:08:51;;;;;;;8.82;1.83;;;;;;;27.97;99.46;98749.91;5093579;28;20205;-75
2023/08/06 07:11:18;;;;;;;6.82;1.40;;;;;;;28.32;97.55;98759.69;5112671;28;20194;-73
2023/08/06 07:13:45;;;;;;;7.78;1.65;;;;;;;28.05;100.00;98747.50;5110995;28;20193;-74
2023/08/06 07:16:12;;;;;;;6.90;1.63;;;;;;;27.78;100.00;98738.13;5112551;28;20197;-74
2023/08/06 07:18:39;;;;;;;7.10;1.70;;;;;;;28.03;100.00;98760.13;5106017;28;20204;-76
2023/08/06 07:21:07;;;;;;;14.60;3.13;;;;;;;27.85;100.00;98758.00;5113527;28;20204;-74
2023/08/06 07:23:34;;;;;;;9.45;1.80;;;;;;;27.67;100.00;98762.94;5093328;28;20198;-73
2023/08/06 07:26:00;;;;;;;6.35;1.52;;;;;;;28.06;100.00;98759.00;5099914;28;20208;-76
2023/08/06 07:28:27;;;;;;;12.98;2.30;;;;;;;28.06;100.00;98765.19;5109274;28;20300;-76
2023/08/06 07:30:54;;;;;;;9.35;1.88;;;;;;;27.57;100.00;98767.25;5112924;28;20650;-76
2023/08/06 07:33:21;;;;;;;11.20;2.08;;;;;;;27.64;100.00;98775.63;5098680;28;20225;-74
2023/08/06 07:35:47;;;;;;;8.15;1.70;;;;;;;27.86;100.00;98786.34;5113255;28;20612;-71
2023/08/06 07:38:16;;;;;;;10.30;1.83;;;;;;;27.73;100.00;98798.88;5050075;28;20202;-72
2023/08/06 07:40:42;;;;;;;10.32;1.95;;;;;;;27.67;100.00;98796.69;5098567;28;20214;-73
2023/08/06 07:43:09;;;;;;;10.98;1.98;;;;;;;28.08;100.00;98821.91;5105760;28;20201;-71
2023/08/06 07:45:36;;;;;;;6.97;1.48;;;;;;;28.22;100.00;98822.69;5107786;28;20585;-73
2023/08/06 07:48:04;;;;;;;9.93;1.85;;;;;;;28.20;100.00;98808.63;5105963;28;21587;-72
2023/08/06 07:50:31;;;;;;;7.43;1.73;;;;;;;28.19;100.00;98841.56;5107776;28;20194;-68
2023/08/06 07:52:58;;;;;;;18.00;2.72;;;;;;;27.95;100.00;98844.25;5111595;28;20699;-72
2023/08/06 07:55:26;;;;;;;6.97;1.42;;;;;;;27.77;100.00;98854.50;5104167;28;20205;-71
2023/08/06 07:57:53;;;;;;;13.57;2.25;;;;;;;27.98;100.00;98854.69;5109833;28;20197;-72
2023/08/06 08:00:20;;;;;;;7.25;1.52;;;;;;;27.58;100.00;98862.13;5105978;28;20656;-72
2023/08/06 08:02:47;;;;;;;13.18;2.13;;;;;;;27.38;100.00;98866.25;5111469;28;20309;-71
2023/08/06 08:05:14;;;;;;;9.02;2.25;;;;;;;26.94;100.00;98797.63;5101618;28;20665;-71
2023/08/06 08:07:41;;;;;;;8.95;1.70;;;;;;;27.47;100.00;98873.59;5104611;28;20206;-71
2023/08/06 08:10:08;;;;;;;6.15;1.40;;;;;;;27.32;100.00;98887.16;5098503;28;20193;-72
2023/08/06 08:12:36;;;;;;;8.23;1.58;;;;;;;27.40;100.00;98890.09;5094190;28;20233;-71
2023/08/06 08:15:04;;;;;;;9.57;1.80;;;;;;;27.01;100.00;98884.00;5048422;28;20208;-72
2023/08/06 08:17:31;;;;;;;9.68;1.80;;;;;;;26.77;100.00;98896.38;5094017;28;20220;-71
2023/08/06 08:19:57;;;;;;;9.32;2.10;;;;;;;26.84;100.00;98902.97;5065867;28;20209;-70
2023/08/06 08:22:24;;;;;;;8.25;1.85;;;;;;;26.64;100.00;98919.47;5105926;28;20202;-70
2023/08/06 08:24:51;;;;;;;19.30;2.72;;;;;;;25.87;100.00;98933.50;5091856;28;20234;-71
2023/08/06 08:27:18;;;;;;;9.88;2.15;;;;;;;25.57;100.00;98922.25;5101990;28;20216;-71
2023/08/06 08:29:46;;;;;;;13.68;2.83;;;;;;;25.39;100.00;98928.69;5091832;28;20194;-71
2023/08/06 08:32:13;;;;;;;12.95;2.25;;;;;;;24.82;100.00;98935.81;5103982;28;20642;-70
2023/08/06 08:34:39;;;;;;;13.45;2.13;;;;;;;24.72;100.00;98930.22;5054422;28;20564;-70
2023/08/06 08:37:06;;;;;;;10.43;1.92;;;;;;;24.29;100.00;98894.84;5048062;28;20213;-72
2023/08/06 08:39:33;;;;;;;13.55;2.15;;;;;;;24.17;100.00;98883.19;5090823;28;20233;-70
2023/08/06 08:42:02;;;;;;;10.23;1.83;;;;;;;24.12;100.00;98850.78;5043923;28;20217;-71
2023/08/06 08:44:29;;;;;;;12.30;1.98;;;;;;;24.14;100.00;98878.06;5097257;28;20202;-70
2023/08/06 08:46:58;;;;;;;21.23;3.17;;;;;;;24.16;100.00;98862.94;5101515;28;20194;-72
2023/08/06 08:49:27;;;;;;;10.32;2.00;;;;;;;24.16;100.00;98825.84;5090846;28;20206;-71
2023/08/06 08:51:54;;;;;;;6.30;1.35;;;;;;;23.84;100.00;98770.44;5094906;28;20226;-72
2023/08/06 08:54:24;;;;;;;6.50;1.50;;;;;;;23.95;100.00;98774.13;5091652;28;20230;-72
2023/08/06 08:56:51;;;;;;;11.25;2.03;;;;;;;24.16;100.00;98756.97;5098107;28;20638;-73
2023/08/06 08:59:18;;;;;;;7.88;1.63;;;;;;;24.31;100.00;98759.63;5093699;28;20270;-72
2023/08/06 09:01:51;;;;;;;6.57;1.42;;;;;;;24.47;100.00;98803.63;5102350;28;20251;-71
2023/08/06 09:04:19;;;;;;;9.73;1.83;;;;;;;24.34;100.00;98815.94;5106256;28;20221;-71
2023/08/06 09:06:50;;;;;;;9.02;1.77;;;;;;;24.07;100.00;98725.75;5092638;28;20194;-71
2023/08/06 09:09:23;;;;;;;8.02;1.73;;;;;;;24.34;100.00;98775.31;5098379;28;20224;-71
2023/08/06 09:11:50;;;;;;;10.13;1.98;;;;;;;24.16;100.00;98767.56;5090636;28;20259;-71
2023/08/06 09:14:17;;;;;;;8.32;1.77;;;;;;;24.29;100.00;98756.22;5102215;28;20216;-71
2023/08/06 09:16:44;;;;;;;9.48;1.77;;;;;;;24.50;100.00;98762.84;5044586;28;20198;-71
2023/08/06 09:19:12;;;;;;;6.10;1.48;;;;;;;24.69;100.00;98768.66;5090653;28;20209;-72
2023/08/06 09:21:41;;;;;;;9.30;1.80;;;;;;;24.85;100.00;98739.41;5098110;28;20240;-71
2023/08/06 09:24:09;;;;;;;5.68;1.38;;;;;;;24.61;100.00;98731.22;5104363;28;20205;-70
2023/08/06 09:26:37;;;;;;;8.70;1.75;;;;;;;24.47;100.00;98736.53;5111006;28;20218;-71
2023/08/06 09:29:06;;;;;;;5.70;1.35;;;;;;;24.22;100.00;98744.31;5111458;28;20693;-72
2023/08/06 09:31:43;;;;;;;12.05;2.33;;;;;;;24.12;100.00;98760.72;5112576;28;20266;-71
2023/08/06 09:34:15;;;;;;;4.95;1.27;;;;;;;23.86;100.00;98764.13;5114883;28;20232;-71
2023/08/06 09:36:47;;;;;;;6.40;1.33;;;;;;;24.30;100.00;98805.59;5110113;28;20267;-71
2023/08/06 09:39:15;;;;;;;4.65;1.20;;;;;;;24.95;100.00;98828.03;5100944;28;20206;-74
2023/08/06 09:41:41;;;;;;;5.70;1.38;;;;;;;24.83;100.00;98829.66;5051471;28;20279;-73
2023/08/06 09:44:17;;;;;;;11.15;2.05;;;;;;;25.07;100.00;98825.47;5094948;28;20202;-75
2023/08/06 09:46:47;;;;;;;15.82;2.58;;;;;;;24.84;100.00;98849.94;5096468;28;20225;-73
2023/08/06 09:49:14;;;;;;;14.30;2.35;;;;;;;24.73;100.00;98841.75;5094336;28;20219;-74
2023/08/06 09:51:43;;;;;;;9.23;1.75;;;;;;;24.77;100.00;98822.06;5094114;28;20553;-73
2023/08/06 09:54:13;;;;;;;7.28;1.60;;;;;;;24.66;100.00;98830.69;5094220;28;20241;-71
2023/08/06 09:56:41;;;;;;;6.72;1.50;;;;;;;24.86;100.00;98853.38;5099342;28;20262;-72
2023/08/06 09:59:08;;;;;;;7.88;1.70;;;;;;;24.80;100.00;98837.78;5042233;28;20210;-76
2023/08/06 10:01:36;;;;;;;12.05;2.13;;;;;;;25.17;100.00;98842.50;5095899;28;20208;-71
2023/08/06 10:04:04;;;;;;;10.55;2.00;;;;;;;25.05;100.00;98858.34;5093660;28;20579;-71
2023/08/06 10:06:35;;;;;;;13.73;2.55;;;;;;;25.09;100.00;98855.41;5094299;28;20206;-70
2023/08/06 10:09:03;;;;;;;8.43;1.85;;;;;;;25.03;100.00;98866.41;5108872;28;20297;-71
2023/08/06 10:11:31;;;;;;;4.93;1.30;;;;;;;25.21;100.00;98858.22;5099146;28;20532;-72
2023/08/06 10:14:04;;;;;;;10.60;1.98;;;;;;;25.83;100.00;98870.91;5095739;28;20226;-73
2023/08/06 10:16:32;;;;;;;4.70;1.40;;;;;;;25.99;100.00;98853.00;5093910;28;20714;-73
2023/08/06 10:19:02;;;;;;;12.43;2.17;;;;;;;26.36;100.00;98850.53;5096302;28;20205;-73
2023/08/06 10:21:30;;;;;;;4.53;1.23;;;;;;;26.48;100.00;98871.78;5100592;28;20217;-72
2023/08/06 10:23:57;;;;;;;10.70;1.85;;;;;;;26.97;100.00;98863.91;5102362;28;20209;-73
2023/08/06 10:26:27;;;;;;;8.38;1.65;;;;;;;27.27;100.00;98881.28;5100423;28;20289;-73
2023/08/06 10:28:55;;;;;;;10.60;1.88;;;;;;;27.71;100.00;98872.75;5060941;28;20284;-73
2023/08/06 10:31:54;;;;;;;8.48;1.80;;;;;;;27.24;100.00;98866.41;5101756;28;20285;-71
2023/08/06 10:34:22;;;;;;;9.73;1.83;;;;;;;26.92;100.00;98874.03;5093318;28;20694;-72
2023/08/06 10:36:48;;;;;;;11.32;2.05;;;;;;;26.72;100.00;98877.19;5093504;28;20202;-72
2023/08/06 10:39:15;;;;;;;7.55;1.45;;;;;;;26.74;100.00;98872.66;5093572;28;20262;-72
2023/08/06 10:41:43;;;;;;;8.10;1.73;;;;;;;26.44;100.00;98824.25;5103360;28;20798;-71
2023/08/06 10:44:12;;;;;;;7.47;1.48;;;;;;;26.44;100.00;98845.53;5092669;28;20209;-71
2023/08/06 10:46:39;;;;;;;9.88;2.25;;;;;;;26.56;100.00;98863.28;5093241;28;20293;-73
2023/08/06 10:49:07;;;;;;;6.28;1.40;;;;;;;26.24;100.00;98857.53;5097954;28;20226;-72
2023/08/06 10:51:34;;;;;;;12.18;2.13;;;;;;;25.83;100.00;98867.41;5093341;28;20201;-71
2023/08/06 10:54:01;;;;;;;6.03;1.40;;;;;;;25.95;100.00;98856.81;5095781;28;20703;-71
2023/08/06 10:56:27;;;;;;;17.98;2.35;;;;;;;25.64;100.00;98841.25;5094025;28;20656;-70
2023/08/06 10:58:56;;;;;;;6.68;1.40;;;;;;;25.61;100.00;98836.13;5097571;28;20214;-72
2023/08/06 11:01:25;;;;;;;9.80;1.92;;;;;;;25.48;100.00;98819.25;5101184;28;20646;-71
2023/08/06 11:03:53;;;;;;;7.78;1.70;;;;;;;25.04;100.00;98800.94;5060093;28;20214;-72
2023/08/06 11:06:20;;;;;;;6.22;1.55;;;;;;;24.90;100.00;98822.19;5091123;28;20612;-71
2023/08/06 11:08:49;;;;;;;7.03;1.52;;;;;;;24.84;100.00;98835.81;5091834;28;20190;-72
2023/08/06 11:11:17;;;;;;;7.55;1.63;;;;;;;24.94;100.00;98848.41;5105373;28;20202;-72
2023/08/06 11:13:46;;;;;;;5.05;1.35;;;;;;;24.91;100.00;98876.91;5096181;28;20221;-71
2023/08/06 11:16:13;;;;;;;9.73;1.80;;;;;;;24.44;100.00;98872.72;5101278;28;20201;-72
2023/08/06 11:18:42;;;;;;;7.65;1.52;;;;;;;24.32;100.00;98831.06;5095299;28;20198;-72
2023/08/06 11:21:10;;;;;;;10.18;1.92;;;;;;;24.52;100.00;98828.03;5103218;28;20199;-72
2023/08/06 11:23:37;;;;;;;7.88;1.65;;;;;;;24.43;100.00;98798.63;5092580;28;20208;-71
2023/08/06 11:26:04;;;;;;;10.55;1.90;;;;;;;24.37;100.00;98806.94;5038701;28;20194;-72